sensor_id;sensor_type;location;lat;lon;timestamp;temperature;humidity
49184;DHT22;35021;49.214;12.270;2023-02-23T00:01:57;19.40;38.10
49184;DHT22;35021;49.214;12.270;2023-02-23T00:04:31;19.40;38.10
49184;DHT22;35021;49.214;12.270;2023-02-23T00:06:58;19.40;38.10
49184;DHT22;35021;49.214;12.270;2023-02-23T00:09:25;19.40;38.00
49184;DHT22;35021;49.214;12.270;2023-02-23T00:11:55;19.40;38.00
49184;DHT22;35021;49.214;12.270;2023-02-23T00:14:27;19.40;38.00
49184;DHT22;35021;49.214;12.270;2023-02-23T00:16:55;19.40;37.90
49184;DHT22;35021;49.214;12.270;2023-02-23T00:19:23;19.40;37.80
49184;DHT22;35021;49.214;12.270;2023-02-23T00:21:51;19.40;37.80
49184;DHT22;35021;49.214;12.270;2023-02-23T00:24:18;19.50;37.80
49184;DHT22;35021;49.214;12.270;2023-02-23T00:26:47;19.50;37.80
49184;DHT22;35021;49.214;12.270;2023-02-23T00:29:17;19.40;37.80
49184;DHT22;35021;49.214;12.270;2023-02-23T00:31:45;19.40;37.90
49184;DHT22;35021;49.214;12.270;2023-02-23T00:34:14;19.40;37.90
49184;DHT22;35021;49.214;12.270;2023-02-23T00:36:42;19.40;38.00
49184;DHT22;35021;49.214;12.270;2023-02-23T00:39:12;19.30;38.00
49184;DHT22;35021;49.214;12.270;2023-02-23T00:41:48;19.40;38.10
49184;DHT22;35021;49.214;12.270;2023-02-23T00:44:15;19.40;38.10
49184;DHT22;35021;49.214;12.270;2023-02-23T00:46:44;19.40;38.20
49184;DHT22;35021;49.214;12.270;2023-02-23T00:49:12;19.30;38.10
49184;DHT22;35021;49.214;12.270;2023-02-23T00:51:39;19.30;38.10
49184;DHT22;35021;49.214;12.270;2023-02-23T00:54:06;19.40;38.20
49184;DHT22;35021;49.214;12.270;2023-02-23T00:56:33;19.40;38.20
49184;DHT22;35021;49.214;12.270;2023-02-23T00:59:00;19.40;38.10
49184;DHT22;35021;49.214;12.270;2023-02-23T01:01:27;19.40;38.10
49184;DHT22;35021;49.214;12.270;2023-02-23T01:03:54;19.40;38.00
49184;DHT22;35021;49.214;12.270;2023-02-23T01:06:21;19.40;38.00
49184;DHT22;35021;49.214;12.270;2023-02-23T01:08:50;19.40;38.00
49184;DHT22;35021;49.214;12.270;2023-02-23T01:11:20;19.40;37.90
49184;DHT22;35021;49.214;12.270;2023-02-23T01:13:50;19.40;37.90
49184;DHT22;35021;49.214;12.270;2023-02-23T01:16:19;19.40;37.80
49184;DHT22;35021;49.214;12.270;2023-02-23T01:18:47;19.40;37.80
49184;DHT22;35021;49.214;12.270;2023-02-23T01:21:15;19.40;37.80
49184;DHT22;35021;49.214;12.270;2023-02-23T01:23:43;19.40;37.70
49184;DHT22;35021;49.214;12.270;2023-02-23T01:26:28;19.40;37.70
49184;DHT22;35021;49.214;12.270;2023-02-23T01:28:57;19.40;37.60
49184;DHT22;35021;49.214;12.270;2023-02-23T01:31:27;19.40;37.60
49184;DHT22;35021;49.214;12.270;2023-02-23T01:33:56;19.40;37.60
49184;DHT22;35021;49.214;12.270;2023-02-23T01:36:23;19.40;37.60
49184;DHT22;35021;49.214;12.270;2023-02-23T01:38:51;19.40;37.50
49184;DHT22;35021;49.214;12.270;2023-02-23T01:41:23;19.40;37.50
49184;DHT22;35021;49.214;12.270;2023-02-23T01:44:01;19.40;37.60
49184;DHT22;35021;49.214;12.270;2023-02-23T01:46:34;19.50;37.60
49184;DHT22;35021;49.214;12.270;2023-02-23T01:49:02;19.40;37.50
49184;DHT22;35021;49.214;12.270;2023-02-23T01:51:33;19.50;37.60
49184;DHT22;35021;49.214;12.270;2023-02-23T01:54:13;19.50;37.60
49184;DHT22;35021;49.214;12.270;2023-02-23T01:56:44;19.40;37.50
49184;DHT22;35021;49.214;12.270;2023-02-23T01:59:15;19.50;37.60
49184;DHT22;35021;49.214;12.270;2023-02-23T02:01:43;19.50;37.50
49184;DHT22;35021;49.214;12.270;2023-02-23T02:04:11;19.50;37.40
49184;DHT22;35021;49.214;12.270;2023-02-23T02:06:44;19.50;37.40
49184;DHT22;35021;49.214;12.270;2023-02-23T02:09:15;19.50;37.40
49184;DHT22;35021;49.214;12.270;2023-02-23T02:11:43;19.50;37.40
49184;DHT22;35021;49.214;12.270;2023-02-23T02:14:18;19.50;37.40
49184;DHT22;35021;49.214;12.270;2023-02-23T02:17:05;19.50;37.40
49184;DHT22;35021;49.214;12.270;2023-02-23T02:20:06;19.50;37.40
49184;DHT22;35021;49.214;12.270;2023-02-23T02:25:48;19.50;37.40
49184;DHT22;35021;49.214;12.270;2023-02-23T02:31:36;19.40;37.40
49184;DHT22;35021;49.214;12.270;2023-02-23T02:37:28;19.40;37.50
49184;DHT22;35021;49.214;12.270;2023-02-23T02:40:10;19.40;37.50
49184;DHT22;35021;49.214;12.270;2023-02-23T02:42:47;19.40;37.50
49184;DHT22;35021;49.214;12.270;2023-02-23T02:48:22;19.50;37.60
49184;DHT22;35021;49.214;12.270;2023-02-23T02:51:21;19.50;37.50
49184;DHT22;35021;49.214;12.270;2023-02-23T02:54:09;19.60;37.40
49184;DHT22;35021;49.214;12.270;2023-02-23T02:56:42;19.60;37.40
49184;DHT22;35021;49.214;12.270;2023-02-23T02:59:16;19.70;37.30
49184;DHT22;35021;49.214;12.270;2023-02-23T03:02:04;19.80;37.30
49184;DHT22;35021;49.214;12.270;2023-02-23T03:04:50;19.80;37.10
49184;DHT22;35021;49.214;12.270;2023-02-23T03:07:42;19.90;37.10
49184;DHT22;35021;49.214;12.270;2023-02-23T03:10:38;20.00;37.00
49184;DHT22;35021;49.214;12.270;2023-02-23T03:14:23;20.00;36.90
49184;DHT22;35021;49.214;12.270;2023-02-23T03:20:12;20.10;36.80
49184;DHT22;35021;49.214;12.270;2023-02-23T03:23:20;20.20;36.80
49184;DHT22;35021;49.214;12.270;2023-02-23T03:26:28;20.20;36.70
49184;DHT22;35021;49.214;12.270;2023-02-23T03:32:30;20.20;36.70
49184;DHT22;35021;49.214;12.270;2023-02-23T03:35:55;20.20;36.70
49184;DHT22;35021;49.214;12.270;2023-02-23T03:38:52;20.10;36.70
49184;DHT22;35021;49.214;12.270;2023-02-23T03:41:40;20.10;36.70
49184;DHT22;35021;49.214;12.270;2023-02-23T03:44:31;20.10;36.70
49184;DHT22;35021;49.214;12.270;2023-02-23T03:47:19;20.10;36.60
49184;DHT22;35021;49.214;12.270;2023-02-23T03:50:11;20.10;36.60
49184;DHT22;35021;49.214;12.270;2023-02-23T03:52:59;20.20;36.50
49184;DHT22;35021;49.214;12.270;2023-02-23T03:55:50;20.20;36.50
49184;DHT22;35021;49.214;12.270;2023-02-23T03:58:45;20.20;36.30
49184;DHT22;35021;49.214;12.270;2023-02-23T04:01:32;20.30;36.30
49184;DHT22;35021;49.214;12.270;2023-02-23T04:04:19;20.30;36.30
49184;DHT22;35021;49.214;12.270;2023-02-23T04:07:07;20.30;36.30
49184;DHT22;35021;49.214;12.270;2023-02-23T04:09:53;20.30;36.30
49184;DHT22;35021;49.214;12.270;2023-02-23T04:12:43;20.30;36.30
49184;DHT22;35021;49.214;12.270;2023-02-23T04:15:39;20.30;36.40
49184;DHT22;35021;49.214;12.270;2023-02-23T04:18:07;20.30;36.40
49184;DHT22;35021;49.214;12.270;2023-02-23T04:20:37;20.30;36.50
49184;DHT22;35021;49.214;12.270;2023-02-23T04:23:04;20.20;36.50
49184;DHT22;35021;49.214;12.270;2023-02-23T04:25:31;20.20;36.50
49184;DHT22;35021;49.214;12.270;2023-02-23T04:27:58;20.20;36.50
49184;DHT22;35021;49.214;12.270;2023-02-23T04:30:24;20.30;36.50
49184;DHT22;35021;49.214;12.270;2023-02-23T04:32:54;20.30;36.50
49184;DHT22;35021;49.214;12.270;2023-02-23T04:35:22;20.20;36.40
49184;DHT22;35021;49.214;12.270;2023-02-23T04:37:49;20.20;36.40
49184;DHT22;35021;49.214;12.270;2023-02-23T04:40:16;20.20;36.50
49184;DHT22;35021;49.214;12.270;2023-02-23T04:42:43;20.20;36.50
49184;DHT22;35021;49.214;12.270;2023-02-23T04:45:10;20.10;36.40
49184;DHT22;35021;49.214;12.270;2023-02-23T04:47:37;20.10;36.40
49184;DHT22;35021;49.214;12.270;2023-02-23T04:50:04;20.10;36.40
49184;DHT22;35021;49.214;12.270;2023-02-23T04:52:32;20.10;36.40
49184;DHT22;35021;49.214;12.270;2023-02-23T04:55:00;20.10;36.30
49184;DHT22;35021;49.214;12.270;2023-02-23T04:57:27;20.10;36.40
49184;DHT22;35021;49.214;12.270;2023-02-23T04:59:54;20.10;36.40
49184;DHT22;35021;49.214;12.270;2023-02-23T05:02:21;20.10;36.50
49184;DHT22;35021;49.214;12.270;2023-02-23T05:04:48;20.00;36.50
49184;DHT22;35021;49.214;12.270;2023-02-23T05:07:14;20.00;36.50
49184;DHT22;35021;49.214;12.270;2023-02-23T05:09:41;20.00;36.60
49184;DHT22;35021;49.214;12.270;2023-02-23T05:12:08;19.90;37.30
49184;DHT22;35021;49.214;12.270;2023-02-23T05:14:35;19.90;36.60
49184;DHT22;35021;49.214;12.270;2023-02-23T05:17:02;19.90;36.60
49184;DHT22;35021;49.214;12.270;2023-02-23T05:19:29;19.90;36.60
49184;DHT22;35021;49.214;12.270;2023-02-23T05:21:55;19.90;36.50
49184;DHT22;35021;49.214;12.270;2023-02-23T05:24:22;20.00;36.50
49184;DHT22;35021;49.214;12.270;2023-02-23T05:26:49;20.00;36.40
49184;DHT22;35021;49.214;12.270;2023-02-23T05:29:16;20.00;36.40
49184;DHT22;35021;49.214;12.270;2023-02-23T05:31:44;20.00;36.40
49184;DHT22;35021;49.214;12.270;2023-02-23T05:34:11;20.00;36.30
49184;DHT22;35021;49.214;12.270;2023-02-23T05:36:38;20.00;36.30
49184;DHT22;35021;49.214;12.270;2023-02-23T05:39:05;20.00;36.30
49184;DHT22;35021;49.214;12.270;2023-02-23T05:41:31;20.00;36.40
49184;DHT22;35021;49.214;12.270;2023-02-23T05:43:58;20.00;36.40
49184;DHT22;35021;49.214;12.270;2023-02-23T05:46:26;20.00;36.40
49184;DHT22;35021;49.214;12.270;2023-02-23T05:48:57;20.00;36.50
49184;DHT22;35021;49.214;12.270;2023-02-23T05:51:25;20.00;36.40
49184;DHT22;35021;49.214;12.270;2023-02-23T05:53:53;20.00;36.40
49184;DHT22;35021;49.214;12.270;2023-02-23T05:56:19;19.90;36.40
49184;DHT22;35021;49.214;12.270;2023-02-23T05:58:48;19.90;36.40
49184;DHT22;35021;49.214;12.270;2023-02-23T06:01:15;19.90;36.40
49184;DHT22;35021;49.214;12.270;2023-02-23T06:03:44;19.90;36.40
49184;DHT22;35021;49.214;12.270;2023-02-23T06:06:11;20.00;36.40
49184;DHT22;35021;49.214;12.270;2023-02-23T06:08:38;20.00;37.10
49184;DHT22;35021;49.214;12.270;2023-02-23T06:11:05;20.00;36.30
49184;DHT22;35021;49.214;12.270;2023-02-23T06:13:32;20.10;36.30
49184;DHT22;35021;49.214;12.270;2023-02-23T06:16:00;20.10;36.20
49184;DHT22;35021;49.214;12.270;2023-02-23T06:18:27;20.20;36.20
49184;DHT22;35021;49.214;12.270;2023-02-23T06:20:57;20.10;36.10
49184;DHT22;35021;49.214;12.270;2023-02-23T06:23:24;20.10;36.10
49184;DHT22;35021;49.214;12.270;2023-02-23T06:25:51;20.10;36.00
49184;DHT22;35021;49.214;12.270;2023-02-23T06:28:18;20.10;36.00
49184;DHT22;35021;49.214;12.270;2023-02-23T06:30:45;20.10;36.00
49184;DHT22;35021;49.214;12.270;2023-02-23T06:33:12;20.10;36.00
49184;DHT22;35021;49.214;12.270;2023-02-23T06:35:39;20.10;36.10
49184;DHT22;35021;49.214;12.270;2023-02-23T06:38:06;20.10;36.10
49184;DHT22;35021;49.214;12.270;2023-02-23T06:40:32;20.00;36.10
49184;DHT22;35021;49.214;12.270;2023-02-23T06:42:59;20.00;36.10
49184;DHT22;35021;49.214;12.270;2023-02-23T06:45:28;20.00;36.20
49184;DHT22;35021;49.214;12.270;2023-02-23T06:47:55;20.00;36.20
49184;DHT22;35021;49.214;12.270;2023-02-23T06:50:22;20.00;36.10
49184;DHT22;35021;49.214;12.270;2023-02-23T06:52:49;20.00;36.10
49184;DHT22;35021;49.214;12.270;2023-02-23T06:55:16;20.00;36.10
49184;DHT22;35021;49.214;12.270;2023-02-23T06:57:43;20.00;36.20
49184;DHT22;35021;49.214;12.270;2023-02-23T07:00:11;20.00;36.20
49184;DHT22;35021;49.214;12.270;2023-02-23T07:02:40;20.10;36.10
49184;DHT22;35021;49.214;12.270;2023-02-23T07:05:08;20.10;36.10
49184;DHT22;35021;49.214;12.270;2023-02-23T07:07:35;20.10;36.10
49184;DHT22;35021;49.214;12.270;2023-02-23T07:10:03;20.20;36.20
49184;DHT22;35021;49.214;12.270;2023-02-23T07:12:30;20.20;36.20
49184;DHT22;35021;49.214;12.270;2023-02-23T07:14:57;20.20;36.20
49184;DHT22;35021;49.214;12.270;2023-02-23T07:17:24;20.20;36.30
49184;DHT22;35021;49.214;12.270;2023-02-23T07:19:51;20.10;36.30
49184;DHT22;35021;49.214;12.270;2023-02-23T07:22:18;20.10;36.30
49184;DHT22;35021;49.214;12.270;2023-02-23T07:24:45;20.10;36.40
49184;DHT22;35021;49.214;12.270;2023-02-23T07:27:12;20.10;36.50
49184;DHT22;35021;49.214;12.270;2023-02-23T07:29:39;20.00;36.60
49184;DHT22;35021;49.214;12.270;2023-02-23T07:32:06;20.00;36.80
49184;DHT22;35021;49.214;12.270;2023-02-23T07:34:33;19.90;36.80
49184;DHT22;35021;49.214;12.270;2023-02-23T07:36:59;19.90;36.90
49184;DHT22;35021;49.214;12.270;2023-02-23T07:39:26;20.00;37.00
49184;DHT22;35021;49.214;12.270;2023-02-23T07:41:53;20.00;37.10
49184;DHT22;35021;49.214;12.270;2023-02-23T07:44:20;20.00;37.10
49184;DHT22;35021;49.214;12.270;2023-02-23T07:46:47;20.10;37.10
49184;DHT22;35021;49.214;12.270;2023-02-23T07:49:15;20.10;37.10
49184;DHT22;35021;49.214;12.270;2023-02-23T07:51:41;20.10;37.20
49184;DHT22;35021;49.214;12.270;2023-02-23T07:54:08;20.10;37.30
49184;DHT22;35021;49.214;12.270;2023-02-23T07:56:35;20.10;37.40
49184;DHT22;35021;49.214;12.270;2023-02-23T07:59:02;20.10;37.40
49184;DHT22;35021;49.214;12.270;2023-02-23T08:01:29;20.00;37.50
49184;DHT22;35021;49.214;12.270;2023-02-23T08:03:56;20.00;37.50
49184;DHT22;35021;49.214;12.270;2023-02-23T08:06:23;20.00;37.60
49184;DHT22;35021;49.214;12.270;2023-02-23T08:08:50;20.00;37.70
49184;DHT22;35021;49.214;12.270;2023-02-23T08:11:16;20.00;37.80
49184;DHT22;35021;49.214;12.270;2023-02-23T08:13:44;19.90;37.90
49184;DHT22;35021;49.214;12.270;2023-02-23T08:16:10;19.90;38.00
49184;DHT22;35021;49.214;12.270;2023-02-23T08:18:38;20.00;38.10
49184;DHT22;35021;49.214;12.270;2023-02-23T08:21:05;20.00;38.20
49184;DHT22;35021;49.214;12.270;2023-02-23T08:23:32;20.00;38.30
49184;DHT22;35021;49.214;12.270;2023-02-23T08:26:00;20.00;38.30
49184;DHT22;35021;49.214;12.270;2023-02-23T08:28:29;20.00;38.30
49184;DHT22;35021;49.214;12.270;2023-02-23T08:30:56;20.00;38.40
49184;DHT22;35021;49.214;12.270;2023-02-23T08:33:25;20.10;38.40
49184;DHT22;35021;49.214;12.270;2023-02-23T08:35:52;20.10;38.50
49184;DHT22;35021;49.214;12.270;2023-02-23T08:38:19;20.10;38.60
49184;DHT22;35021;49.214;12.270;2023-02-23T08:40:46;20.10;38.60
49184;DHT22;35021;49.214;12.270;2023-02-23T08:43:13;20.10;38.70
49184;DHT22;35021;49.214;12.270;2023-02-23T08:45:39;20.10;38.70
49184;DHT22;35021;49.214;12.270;2023-02-23T08:48:07;20.10;38.80
49184;DHT22;35021;49.214;12.270;2023-02-23T08:50:34;20.10;38.90
49184;DHT22;35021;49.214;12.270;2023-02-23T08:53:01;20.10;38.90
49184;DHT22;35021;49.214;12.270;2023-02-23T08:55:28;20.10;39.10
49184;DHT22;35021;49.214;12.270;2023-02-23T08:57:55;20.00;39.30
49184;DHT22;35021;49.214;12.270;2023-02-23T09:00:22;20.00;39.40
49184;DHT22;35021;49.214;12.270;2023-02-23T09:02:48;20.10;39.50
49184;DHT22;35021;49.214;12.270;2023-02-23T09:05:16;20.10;39.60
49184;DHT22;35021;49.214;12.270;2023-02-23T09:07:43;20.10;39.50
49184;DHT22;35021;49.214;12.270;2023-02-23T09:10:16;20.20;39.60
49184;DHT22;35021;49.214;12.270;2023-02-23T09:12:43;20.20;39.50
49184;DHT22;35021;49.214;12.270;2023-02-23T09:15:11;20.20;39.60
49184;DHT22;35021;49.214;12.270;2023-02-23T09:17:38;20.30;39.60
49184;DHT22;35021;49.214;12.270;2023-02-23T09:20:07;20.30;39.60
49184;DHT22;35021;49.214;12.270;2023-02-23T09:22:34;20.30;39.60
49184;DHT22;35021;49.214;12.270;2023-02-23T09:25:02;20.30;39.60
49184;DHT22;35021;49.214;12.270;2023-02-23T09:27:30;20.30;39.70
49184;DHT22;35021;49.214;12.270;2023-02-23T09:29:57;20.30;39.70
49184;DHT22;35021;49.214;12.270;2023-02-23T09:32:24;20.30;39.80
49184;DHT22;35021;49.214;12.270;2023-02-23T09:34:51;20.20;39.90
49184;DHT22;35021;49.214;12.270;2023-02-23T09:37:18;20.20;40.00
49184;DHT22;35021;49.214;12.270;2023-02-23T09:39:45;20.20;40.20
49184;DHT22;35021;49.214;12.270;2023-02-23T09:42:23;20.10;40.30
49184;DHT22;35021;49.214;12.270;2023-02-23T09:50:30;20.10;40.50
49184;DHT22;35021;49.214;12.270;2023-02-23T09:53:05;20.10;40.60
49184;DHT22;35021;49.214;12.270;2023-02-23T09:55:33;20.10;40.70
49184;DHT22;35021;49.214;12.270;2023-02-23T09:58:16;20.20;40.90
49184;DHT22;35021;49.214;12.270;2023-02-23T10:00:56;20.10;40.80
49184;DHT22;35021;49.214;12.270;2023-02-23T10:03:33;20.20;40.80
49184;DHT22;35021;49.214;12.270;2023-02-23T10:06:06;20.20;40.80
49184;DHT22;35021;49.214;12.270;2023-02-23T10:11:33;20.30;40.80
49184;DHT22;35021;49.214;12.270;2023-02-23T10:22:15;20.50;40.70
49184;DHT22;35021;49.214;12.270;2023-02-23T10:24:49;20.60;40.80
49184;DHT22;35021;49.214;12.270;2023-02-23T10:27:20;20.60;40.80
49184;DHT22;35021;49.214;12.270;2023-02-23T10:29:51;20.70;40.80
49184;DHT22;35021;49.214;12.270;2023-02-23T10:32:36;20.70;40.80
49184;DHT22;35021;49.214;12.270;2023-02-23T10:35:18;20.80;40.70
49184;DHT22;35021;49.214;12.270;2023-02-23T10:37:47;20.80;40.60
49184;DHT22;35021;49.214;12.270;2023-02-23T10:40:16;20.90;40.60
49184;DHT22;35021;49.214;12.270;2023-02-23T10:42:43;21.00;40.60
49184;DHT22;35021;49.214;12.270;2023-02-23T10:45:15;21.00;40.40
49184;DHT22;35021;49.214;12.270;2023-02-23T10:47:56;21.10;40.40
49184;DHT22;35021;49.214;12.270;2023-02-23T10:50:24;21.20;40.30
49184;DHT22;35021;49.214;12.270;2023-02-23T10:52:58;21.30;40.20
49184;DHT22;35021;49.214;12.270;2023-02-23T10:55:28;21.40;40.10
49184;DHT22;35021;49.214;12.270;2023-02-23T11:00:33;21.50;39.90
49184;DHT22;35021;49.214;12.270;2023-02-23T11:03:16;21.60;39.80
49184;DHT22;35021;49.214;12.270;2023-02-23T11:05:47;21.60;39.60
49184;DHT22;35021;49.214;12.270;2023-02-23T11:08:17;21.70;39.60
49184;DHT22;35021;49.214;12.270;2023-02-23T11:11:02;21.70;39.40
49184;DHT22;35021;49.214;12.270;2023-02-23T11:13:41;21.80;39.40
49184;DHT22;35021;49.214;12.270;2023-02-23T11:16:20;21.90;39.20
49184;DHT22;35021;49.214;12.270;2023-02-23T11:19:02;21.90;39.00
49184;DHT22;35021;49.214;12.270;2023-02-23T11:21:36;22.00;38.90
49184;DHT22;35021;49.214;12.270;2023-02-23T11:24:26;22.00;38.80
49184;DHT22;35021;49.214;12.270;2023-02-23T11:27:01;22.00;38.80
49184;DHT22;35021;49.214;12.270;2023-02-23T11:29:34;22.00;38.80
49184;DHT22;35021;49.214;12.270;2023-02-23T11:32:12;22.00;38.80
49184;DHT22;35021;49.214;12.270;2023-02-23T11:34:41;22.00;38.80
49184;DHT22;35021;49.214;12.270;2023-02-23T11:40:20;22.00;38.90
49184;DHT22;35021;49.214;12.270;2023-02-23T11:43:13;21.90;38.90
49184;DHT22;35021;49.214;12.270;2023-02-23T11:45:49;21.90;39.10
49184;DHT22;35021;49.214;12.270;2023-02-23T11:50:58;21.80;39.30
49184;DHT22;35021;49.214;12.270;2023-02-23T11:53:33;21.70;39.40
49184;DHT22;35021;49.214;12.270;2023-02-23T11:56:02;21.70;39.50
49184;DHT22;35021;49.214;12.270;2023-02-23T11:58:46;21.70;39.60
49184;DHT22;35021;49.214;12.270;2023-02-23T12:01:17;21.60;39.60
49184;DHT22;35021;49.214;12.270;2023-02-23T12:03:49;21.70;39.70
49184;DHT22;35021;49.214;12.270;2023-02-23T12:06:33;21.70;39.60
49184;DHT22;35021;49.214;12.270;2023-02-23T12:09:26;21.80;39.60
49184;DHT22;35021;49.214;12.270;2023-02-23T12:12:14;21.80;39.50
49184;DHT22;35021;49.214;12.270;2023-02-23T12:15:03;21.90;39.40
49184;DHT22;35021;49.214;12.270;2023-02-23T12:17:39;21.90;39.40
49184;DHT22;35021;49.214;12.270;2023-02-23T12:20:24;21.90;39.30
49184;DHT22;35021;49.214;12.270;2023-02-23T12:28:01;21.90;39.30
49184;DHT22;35021;49.214;12.270;2023-02-23T12:30:54;21.90;39.40
49184;DHT22;35021;49.214;12.270;2023-02-23T12:33:45;21.80;39.50
49184;DHT22;35021;49.214;12.270;2023-02-23T12:37:08;21.80;39.60
49184;DHT22;35021;49.214;12.270;2023-02-23T12:39:30;21.70;39.70
49184;DHT22;35021;49.214;12.270;2023-02-23T12:42:22;21.70;39.80
49184;DHT22;35021;49.214;12.270;2023-02-23T12:44:55;21.60;39.80
49184;DHT22;35021;49.214;12.270;2023-02-23T12:47:38;21.60;39.80
49184;DHT22;35021;49.214;12.270;2023-02-23T12:50:34;21.60;40.00
49184;DHT22;35021;49.214;12.270;2023-02-23T12:53:26;21.50;40.00
49184;DHT22;35021;49.214;12.270;2023-02-23T13:01:35;21.40;40.20
49184;DHT22;35021;49.214;12.270;2023-02-23T13:06:56;21.40;40.30
49184;DHT22;35021;49.214;12.270;2023-02-23T13:15:00;21.20;40.50
49184;DHT22;35021;49.214;12.270;2023-02-23T13:17:45;21.20;40.50
49184;DHT22;35021;49.214;12.270;2023-02-23T13:31:22;21.10;40.70
49184;DHT22;35021;49.214;12.270;2023-02-23T13:33:52;21.20;40.80
49184;DHT22;35021;49.214;12.270;2023-02-23T13:36:20;21.20;40.80
49184;DHT22;35021;49.214;12.270;2023-02-23T13:44:09;21.30;40.70
49184;DHT22;35021;49.214;12.270;2023-02-23T13:46:52;21.30;40.70
49184;DHT22;35021;49.214;12.270;2023-02-23T13:52:01;21.40;40.50
49184;DHT22;35021;49.214;12.270;2023-02-23T13:54:35;21.50;40.40
49184;DHT22;35021;49.214;12.270;2023-02-23T13:57:04;21.50;40.30
49184;DHT22;35021;49.214;12.270;2023-02-23T13:59:41;21.60;40.20
49184;DHT22;35021;49.214;12.270;2023-02-23T14:02:40;21.70;40.00
49184;DHT22;35021;49.214;12.270;2023-02-23T14:05:24;21.70;39.90
49184;DHT22;35021;49.214;12.270;2023-02-23T14:07:54;21.80;39.90
49184;DHT22;35021;49.214;12.270;2023-02-23T14:10:25;21.80;39.80
49184;DHT22;35021;49.214;12.270;2023-02-23T14:18:28;21.90;39.70
49184;DHT22;35021;49.214;12.270;2023-02-23T14:26:35;21.90;39.70
49184;DHT22;35021;49.214;12.270;2023-02-23T14:29:26;21.90;39.80
49184;DHT22;35021;49.214;12.270;2023-02-23T14:32:02;21.80;39.80
49184;DHT22;35021;49.214;12.270;2023-02-23T14:39:59;21.70;40.00
49184;DHT22;35021;49.214;12.270;2023-02-23T14:42:27;21.60;40.10
49184;DHT22;35021;49.214;12.270;2023-02-23T14:44:57;21.50;40.20
49184;DHT22;35021;49.214;12.270;2023-02-23T14:47:40;21.50;40.40
49184;DHT22;35021;49.214;12.270;2023-02-23T14:50:23;21.40;40.50
49184;DHT22;35021;49.214;12.270;2023-02-23T14:52:50;21.40;40.60
49184;DHT22;35021;49.214;12.270;2023-02-23T14:55:25;21.30;40.80
49184;DHT22;35021;49.214;12.270;2023-02-23T14:57:55;21.30;40.90
49184;DHT22;35021;49.214;12.270;2023-02-23T15:00:24;21.20;41.00
49184;DHT22;35021;49.214;12.270;2023-02-23T15:03:03;21.20;41.10
49184;DHT22;35021;49.214;12.270;2023-02-23T15:05:39;21.10;41.20
49184;DHT22;35021;49.214;12.270;2023-02-23T15:08:11;21.10;41.30
49184;DHT22;35021;49.214;12.270;2023-02-23T15:10:40;21.20;41.50
49184;DHT22;35021;49.214;12.270;2023-02-23T15:13:19;21.20;41.60
49184;DHT22;35021;49.214;12.270;2023-02-23T15:15:56;21.20;41.50
49184;DHT22;35021;49.214;12.270;2023-02-23T15:21:56;21.20;41.60
49184;DHT22;35021;49.214;12.270;2023-02-23T15:24:27;21.20;41.50
49184;DHT22;35021;49.214;12.270;2023-02-23T15:26:55;21.30;41.50
49184;DHT22;35021;49.214;12.270;2023-02-23T15:29:24;21.30;41.40
49184;DHT22;35021;49.214;12.270;2023-02-23T15:31:53;21.40;41.40
49184;DHT22;35021;49.214;12.270;2023-02-23T15:34:24;21.50;41.40
49184;DHT22;35021;49.214;12.270;2023-02-23T15:37:02;21.50;41.30
49184;DHT22;35021;49.214;12.270;2023-02-23T15:39:45;21.60;41.30
49184;DHT22;35021;49.214;12.270;2023-02-23T15:42:16;21.70;41.20
49184;DHT22;35021;49.214;12.270;2023-02-23T15:44:44;21.70;41.20
49184;DHT22;35021;49.214;12.270;2023-02-23T15:47:23;21.70;41.20
49184;DHT22;35021;49.214;12.270;2023-02-23T15:52:33;21.80;41.20
49184;DHT22;35021;49.214;12.270;2023-02-23T15:55:08;21.80;41.10
49184;DHT22;35021;49.214;12.270;2023-02-23T15:57:57;21.90;41.10
49184;DHT22;35021;49.214;12.270;2023-02-23T16:00:32;21.90;41.10
49184;DHT22;35021;49.214;12.270;2023-02-23T16:03:01;21.90;40.90
49184;DHT22;35021;49.214;12.270;2023-02-23T16:05:33;21.90;40.90
49184;DHT22;35021;49.214;12.270;2023-02-23T16:08:19;21.90;40.90
49184;DHT22;35021;49.214;12.270;2023-02-23T16:10:52;21.90;40.90
49184;DHT22;35021;49.214;12.270;2023-02-23T16:13:21;21.90;41.70
49184;DHT22;35021;49.214;12.270;2023-02-23T16:15:49;21.80;40.90
49184;DHT22;35021;49.214;12.270;2023-02-23T16:18:21;21.80;41.10
49184;DHT22;35021;49.214;12.270;2023-02-23T16:20:52;21.70;41.00
49184;DHT22;35021;49.214;12.270;2023-02-23T16:23:32;21.70;41.10
49184;DHT22;35021;49.214;12.270;2023-02-23T16:28:44;21.60;41.10
49184;DHT22;35021;49.214;12.270;2023-02-23T16:31:12;21.60;41.20
49184;DHT22;35021;49.214;12.270;2023-02-23T16:33:53;21.70;41.20
49184;DHT22;35021;49.214;12.270;2023-02-23T16:36:32;21.70;41.20
49184;DHT22;35021;49.214;12.270;2023-02-23T16:39:02;21.70;41.20
49184;DHT22;35021;49.214;12.270;2023-02-23T16:41:31;21.70;41.10
49184;DHT22;35021;49.214;12.270;2023-02-23T16:44:00;21.70;41.20
49184;DHT22;35021;49.214;12.270;2023-02-23T16:46:32;21.70;41.10
49184;DHT22;35021;49.214;12.270;2023-02-23T16:49:01;21.70;41.10
49184;DHT22;35021;49.214;12.270;2023-02-23T16:51:36;21.70;41.10
49184;DHT22;35021;49.214;12.270;2023-02-23T16:54:03;21.60;41.10
49184;DHT22;35021;49.214;12.270;2023-02-23T16:56:30;21.60;41.10
49184;DHT22;35021;49.214;12.270;2023-02-23T16:59:01;21.60;41.20
49184;DHT22;35021;49.214;12.270;2023-02-23T17:01:29;21.60;41.10
49184;DHT22;35021;49.214;12.270;2023-02-23T17:03:56;21.60;41.20
49184;DHT22;35021;49.214;12.270;2023-02-23T17:06:24;21.50;41.20
49184;DHT22;35021;49.214;12.270;2023-02-23T17:08:51;21.50;41.30
49184;DHT22;35021;49.214;12.270;2023-02-23T17:11:24;21.40;41.30
49184;DHT22;35021;49.214;12.270;2023-02-23T17:13:51;21.40;41.50
49184;DHT22;35021;49.214;12.270;2023-02-23T17:16:17;21.30;41.50
49184;DHT22;35021;49.214;12.270;2023-02-23T17:18:45;21.30;41.50
49184;DHT22;35021;49.214;12.270;2023-02-23T17:21:12;21.30;41.40
49184;DHT22;35021;49.214;12.270;2023-02-23T17:23:40;21.40;41.50
49184;DHT22;35021;49.214;12.270;2023-02-23T17:26:13;21.40;41.40
49184;DHT22;35021;49.214;12.270;2023-02-23T17:28:40;21.50;41.30
49184;DHT22;35021;49.214;12.270;2023-02-23T17:31:08;21.40;41.20
49184;DHT22;35021;49.214;12.270;2023-02-23T17:33:35;21.50;41.20
49184;DHT22;35021;49.214;12.270;2023-02-23T17:36:05;21.50;41.20
49184;DHT22;35021;49.214;12.270;2023-02-23T17:38:33;21.50;41.10